sensor_id;sensor_type;location;lat;lon;timestamp;noise_LAeq;noise_LA_min;noise_LA_max;noise_LA01;noise_LA95
18377;Laerm;9315;52.624;13.544;2023-04-15T00:01:08;36.09;32.50;48.03;;
18377;Laerm;9315;52.624;13.544;2023-04-15T00:03:36;69.57;32.45;85.96;;
18377;Laerm;9315;52.624;13.544;2023-04-15T00:06:03;41.66;34.03;55.94;;
18377;Laerm;9315;52.624;13.544;2023-04-15T00:08:30;56.30;32.65;74.98;;
18377;Laerm;9315;52.624;13.544;2023-04-15T00:10:58;60.50;33.99;77.43;;
18377;Laerm;9315;52.624;13.544;2023-04-15T00:13:29;56.31;33.49;75.92;;
18377;Laerm;9315;52.624;13.544;2023-04-15T00:15:56;35.81;32.24;48.86;;
18377;Laerm;9315;52.624;13.544;2023-04-15T00:18:24;65.03;33.11;82.08;;
18377;Laerm;9315;52.624;13.544;2023-04-15T00:20:51;37.77;33.44;48.06;;
18377;Laerm;9315;52.624;13.544;2023-04-15T00:23:18;57.28;33.30;75.06;;
18377;Laerm;9315;52.624;13.544;2023-04-15T00:25:46;38.39;32.88;46.12;;
18377;Laerm;9315;52.624;13.544;2023-04-15T00:28:13;61.06;31.62;77.13;;
18377;Laerm;9315;52.624;13.544;2023-04-15T00:30:40;63.15;33.04;79.73;;
18377;Laerm;9315;52.624;13.544;2023-04-15T00:33:08;57.01;33.82;74.76;;
18377;Laerm;9315;52.624;13.544;2023-04-15T00:35:36;56.44;33.09;71.32;;
18377;Laerm;9315;52.624;13.544;2023-04-15T00:38:05;62.95;32.61;81.69;;
18377;Laerm;9315;52.624;13.544;2023-04-15T00:40:33;39.61;32.35;55.73;;
18377;Laerm;9315;52.624;13.544;2023-04-15T00:43:01;36.02;31.98;47.49;;
18377;Laerm;9315;52.624;13.544;2023-04-15T00:45:29;37.25;33.39;47.45;;
18377;Laerm;9315;52.624;13.544;2023-04-15T00:47:56;60.51;32.41;77.15;;
18377;Laerm;9315;52.624;13.544;2023-04-15T00:50:24;42.56;34.42;57.36;;
18377;Laerm;9315;52.624;13.544;2023-04-15T00:52:51;62.46;35.36;79.44;;
18377;Laerm;9315;52.624;13.544;2023-04-15T00:55:18;40.66;33.11;58.32;;
18377;Laerm;9315;52.624;13.544;2023-04-15T00:57:46;37.47;33.56;49.87;;
18377;Laerm;9315;52.624;13.544;2023-04-15T01:00:13;57.37;33.41;73.75;;
18377;Laerm;9315;52.624;13.544;2023-04-15T01:02:40;58.55;33.37;74.84;;
18377;Laerm;9315;52.624;13.544;2023-04-15T01:05:08;35.36;31.90;47.35;;
18377;Laerm;9315;52.624;13.544;2023-04-15T01:07:35;65.21;33.43;85.48;;
18377;Laerm;9315;52.624;13.544;2023-04-15T01:10:04;36.82;32.54;52.67;;
18377;Laerm;9315;52.624;13.544;2023-04-15T01:12:32;38.99;32.82;47.40;;
18377;Laerm;9315;52.624;13.544;2023-04-15T01:15:00;62.36;34.44;82.30;;
18377;Laerm;9315;52.624;13.544;2023-04-15T01:17:28;38.56;34.97;49.66;;
18377;Laerm;9315;52.624;13.544;2023-04-15T01:19:56;62.80;36.46;79.79;;
18377;Laerm;9315;52.624;13.544;2023-04-15T01:22:25;66.22;33.62;84.18;;
18377;Laerm;9315;52.624;13.544;2023-04-15T01:25:18;36.34;33.05;48.69;;
18377;Laerm;9315;52.624;13.544;2023-04-15T01:27:45;62.02;33.12;76.86;;
18377;Laerm;9315;52.624;13.544;2023-04-15T01:30:13;56.10;32.39;72.14;;
18377;Laerm;9315;52.624;13.544;2023-04-15T01:32:41;56.42;36.37;75.33;;
18377;Laerm;9315;52.624;13.544;2023-04-15T01:35:09;66.39;35.27;81.02;;
18377;Laerm;9315;52.624;13.544;2023-04-15T01:37:36;59.01;34.50;75.96;;
18377;Laerm;9315;52.624;13.544;2023-04-15T01:40:04;58.93;35.28;79.41;;
18377;Laerm;9315;52.624;13.544;2023-04-15T01:42:32;63.76;34.40;81.68;;
18377;Laerm;9315;52.624;13.544;2023-04-15T01:44:59;38.47;34.63;49.81;;
18377;Laerm;9315;52.624;13.544;2023-04-15T01:47:26;60.60;35.43;74.43;;
18377;Laerm;9315;52.624;13.544;2023-04-15T01:49:53;40.28;34.67;50.03;;
18377;Laerm;9315;52.624;13.544;2023-04-15T01:52:21;66.47;36.22;81.66;;
18377;Laerm;9315;52.624;13.544;2023-04-15T01:54:48;40.87;37.15;50.53;;
18377;Laerm;9315;52.624;13.544;2023-04-15T01:57:15;59.75;37.96;75.86;;
18377;Laerm;9315;52.624;13.544;2023-04-15T01:59:42;63.66;39.19;83.17;;
18377;Laerm;9315;52.624;13.544;2023-04-15T02:02:11;58.10;37.07;78.05;;
18377;Laerm;9315;52.624;13.544;2023-04-15T02:04:39;55.24;37.71;71.93;;
18377;Laerm;9315;52.624;13.544;2023-04-15T02:07:06;60.76;35.58;78.77;;
18377;Laerm;9315;52.624;13.544;2023-04-15T02:09:33;39.19;34.75;48.02;;
18377;Laerm;9315;52.624;13.544;2023-04-15T02:12:00;65.82;39.61;80.56;;
18377;Laerm;9315;52.624;13.544;2023-04-15T02:14:27;62.19;37.12;78.33;;
18377;Laerm;9315;52.624;13.544;2023-04-15T02:16:54;66.38;36.63;84.94;;
18377;Laerm;9315;52.624;13.544;2023-04-15T02:19:22;39.42;35.48;47.28;;
18377;Laerm;9315;52.624;13.544;2023-04-15T02:21:49;58.85;34.64;76.88;;
18377;Laerm;9315;52.624;13.544;2023-04-15T02:24:16;63.04;36.29;78.55;;
18377;Laerm;9315;52.624;13.544;2023-04-15T02:26:43;57.30;37.31;74.46;;
18377;Laerm;9315;52.624;13.544;2023-04-15T02:29:11;63.91;36.09;78.29;;
18377;Laerm;9315;52.624;13.544;2023-04-15T02:31:38;66.30;35.02;79.60;;
18377;Laerm;9315;52.624;13.544;2023-04-15T02:34:06;59.37;35.34;77.59;;
18377;Laerm;9315;52.624;13.544;2023-04-15T02:36:34;64.98;35.90;80.01;;
18377;Laerm;9315;52.624;13.544;2023-04-15T02:39:01;61.15;36.84;75.73;;
18377;Laerm;9315;52.624;13.544;2023-04-15T02:41:30;65.75;38.68;81.79;;
18377;Laerm;9315;52.624;13.544;2023-04-15T02:43:57;63.77;36.22;78.81;;
18377;Laerm;9315;52.624;13.544;2023-04-15T02:46:24;58.36;35.25;74.90;;
18377;Laerm;9315;52.624;13.544;2023-04-15T02:48:51;66.44;36.65;82.17;;
18377;Laerm;9315;52.624;13.544;2023-04-15T02:51:21;63.61;37.47;80.99;;
18377;Laerm;9315;52.624;13.544;2023-04-15T02:53:49;64.43;35.50;81.55;;
18377;Laerm;9315;52.624;13.544;2023-04-15T02:56:16;70.10;36.09;86.22;;
18377;Laerm;9315;52.624;13.544;2023-04-15T02:58:45;62.59;39.36;78.38;;
18377;Laerm;9315;52.624;13.544;2023-04-15T03:01:12;66.27;38.88;80.69;;
18377;Laerm;9315;52.624;13.544;2023-04-15T03:03:39;62.59;36.25;78.08;;
18377;Laerm;9315;52.624;13.544;2023-04-15T03:06:07;62.59;37.06;77.33;;
18377;Laerm;9315;52.624;13.544;2023-04-15T03:08:35;64.81;40.89;77.26;;
18377;Laerm;9315;52.624;13.544;2023-04-15T03:11:03;66.42;39.57;80.39;;
18377;Laerm;9315;52.624;13.544;2023-04-15T03:13:30;68.64;38.17;83.46;;
18377;Laerm;9315;52.624;13.544;2023-04-15T03:15:57;65.17;40.80;79.23;;
18377;Laerm;9315;52.624;13.544;2023-04-15T03:18:24;66.50;41.19;77.84;;
18377;Laerm;9315;52.624;13.544;2023-04-15T03:20:52;69.57;42.03;81.35;;
18377;Laerm;9315;52.624;13.544;2023-04-15T03:23:19;61.37;39.83;75.73;;
18377;Laerm;9315;52.624;13.544;2023-04-15T03:25:46;67.86;40.19;80.46;;
18377;Laerm;9315;52.624;13.544;2023-04-15T03:28:16;63.82;39.91;81.65;;
18377;Laerm;9315;52.624;13.544;2023-04-15T03:30:43;68.50;41.21;81.47;;
18377;Laerm;9315;52.624;13.544;2023-04-15T03:33:10;65.29;39.84;80.87;;
18377;Laerm;9315;52.624;13.544;2023-04-15T03:35:37;67.94;42.66;79.49;;
18377;Laerm;9315;52.624;13.544;2023-04-15T03:38:04;64.82;40.89;77.76;;
18377;Laerm;9315;52.624;13.544;2023-04-15T03:40:32;64.11;41.34;79.94;;
18377;Laerm;9315;52.624;13.544;2023-04-15T03:43:02;66.25;42.84;78.84;;
18377;Laerm;9315;52.624;13.544;2023-04-15T03:45:30;63.82;42.18;80.02;;
18377;Laerm;9315;52.624;13.544;2023-04-15T03:47:57;63.96;40.90;78.65;;
18377;Laerm;9315;52.624;13.544;2023-04-15T03:50:41;65.26;40.87;81.11;;
18377;Laerm;9315;52.624;13.544;2023-04-15T03:53:08;64.24;39.90;80.14;;
18377;Laerm;9315;52.624;13.544;2023-04-15T03:55:35;58.46;38.82;74.19;;
18377;Laerm;9315;52.624;13.544;2023-04-15T03:58:03;68.90;41.00;83.90;;
18377;Laerm;9315;52.624;13.544;2023-04-15T04:00:30;64.78;41.15;82.54;;
18377;Laerm;9315;52.624;13.544;2023-04-15T04:02:57;66.95;42.83;83.26;;
18377;Laerm;9315;52.624;13.544;2023-04-15T04:05:24;63.90;41.42;80.84;;
18377;Laerm;9315;52.624;13.544;2023-04-15T04:07:52;64.54;41.55;82.03;;
18377;Laerm;9315;52.624;13.544;2023-04-15T04:10:19;64.70;41.34;81.67;;
18377;Laerm;9315;52.624;13.544;2023-04-15T04:12:46;65.73;42.43;80.40;;
18377;Laerm;9315;52.624;13.544;2023-04-15T04:15:13;65.50;41.90;78.42;;
18377;Laerm;9315;52.624;13.544;2023-04-15T04:17:40;66.95;43.67;79.92;;
18377;Laerm;9315;52.624;13.544;2023-04-15T04:20:08;65.85;40.67;78.90;;
18377;Laerm;9315;52.624;13.544;2023-04-15T04:22:39;64.53;39.74;79.01;;
18377;Laerm;9315;52.624;13.544;2023-04-15T04:25:08;68.38;43.77;84.45;;
18377;Laerm;9315;52.624;13.544;2023-04-15T04:27:36;68.84;42.99;83.16;;
18377;Laerm;9315;52.624;13.544;2023-04-15T04:30:05;66.54;42.53;79.80;;
18377;Laerm;9315;52.624;13.544;2023-04-15T04:32:32;67.20;41.66;79.73;;
18377;Laerm;9315;52.624;13.544;2023-04-15T04:35:00;67.37;40.28;82.87;;
18377;Laerm;9315;52.624;13.544;2023-04-15T04:37:27;67.24;40.80;83.31;;
18377;Laerm;9315;52.624;13.544;2023-04-15T04:39:54;62.01;41.80;77.01;;
18377;Laerm;9315;52.624;13.544;2023-04-15T04:42:24;60.44;40.29;79.48;;
18377;Laerm;9315;52.624;13.544;2023-04-15T04:44:52;60.29;42.21;75.23;;
18377;Laerm;9315;52.624;13.544;2023-04-15T04:47:19;66.33;42.99;83.15;;
18377;Laerm;9315;52.624;13.544;2023-04-15T04:49:46;61.40;40.37;77.35;;
18377;Laerm;9315;52.624;13.544;2023-04-15T04:52:16;64.24;42.31;78.75;;
18377;Laerm;9315;52.624;13.544;2023-04-15T04:54:43;61.67;42.16;82.58;;
18377;Laerm;9315;52.624;13.544;2023-04-15T04:57:10;62.26;41.95;74.72;;
18377;Laerm;9315;52.624;13.544;2023-04-15T04:59:40;63.83;42.90;78.94;;
18377;Laerm;9315;52.624;13.544;2023-04-15T05:02:09;68.75;42.43;80.90;;
18377;Laerm;9315;52.624;13.544;2023-04-15T05:04:36;60.29;40.12;79.66;;
18377;Laerm;9315;52.624;13.544;2023-04-15T05:07:04;64.06;42.65;79.42;;
18377;Laerm;9315;52.624;13.544;2023-04-15T05:09:31;64.98;42.56;78.15;;
18377;Laerm;9315;52.624;13.544;2023-04-15T05:11:58;67.97;41.68;79.91;;
18377;Laerm;9315;52.624;13.544;2023-04-15T05:14:26;62.83;41.03;77.44;;
18377;Laerm;9315;52.624;13.544;2023-04-15T05:16:53;67.96;42.24;79.32;;
18377;Laerm;9315;52.624;13.544;2023-04-15T05:19:20;68.82;45.51;81.23;;
18377;Laerm;9315;52.624;13.544;2023-04-15T05:21:47;69.59;43.83;80.36;;
18377;Laerm;9315;52.624;13.544;2023-04-15T05:24:14;65.62;42.41;79.43;;
18377;Laerm;9315;52.624;13.544;2023-04-15T05:26:41;68.28;41.78;83.46;;
18377;Laerm;9315;52.624;13.544;2023-04-15T05:29:09;65.61;42.34;79.48;;
18377;Laerm;9315;52.624;13.544;2023-04-15T05:31:39;67.86;43.85;80.17;;
18377;Laerm;9315;52.624;13.544;2023-04-15T05:34:06;65.76;44.38;77.22;;
18377;Laerm;9315;52.624;13.544;2023-04-15T05:36:34;65.14;45.19;76.55;;
18377;Laerm;9315;52.624;13.544;2023-04-15T05:39:01;68.85;47.44;80.64;;
18377;Laerm;9315;52.624;13.544;2023-04-15T05:41:29;69.50;45.54;82.45;;
18377;Laerm;9315;52.624;13.544;2023-04-15T05:43:56;64.96;42.58;77.78;;
18377;Laerm;9315;52.624;13.544;2023-04-15T05:46:23;68.11;41.94;78.89;;
18377;Laerm;9315;52.624;13.544;2023-04-15T05:48:50;66.72;42.41;81.23;;
18377;Laerm;9315;52.624;13.544;2023-04-15T05:51:18;67.58;46.09;79.37;;
18377;Laerm;9315;52.624;13.544;2023-04-15T05:53:45;65.31;42.48;78.12;;
18377;Laerm;9315;52.624;13.544;2023-04-15T05:56:12;68.52;44.15;77.96;;
18377;Laerm;9315;52.624;13.544;2023-04-15T05:58:39;68.50;42.71;84.94;;
18377;Laerm;9315;52.624;13.544;2023-04-15T06:01:07;67.35;43.60;79.68;;
18377;Laerm;9315;52.624;13.544;2023-04-15T06:03:34;65.07;42.35;77.68;;
18377;Laerm;9315;52.624;13.544;2023-04-15T06:06:01;66.43;42.26;78.64;;
18377;Laerm;9315;52.624;13.544;2023-04-15T06:08:29;68.65;42.54;78.26;;
18377;Laerm;9315;52.624;13.544;2023-04-15T06:10:58;66.85;43.44;78.03;;
18377;Laerm;9315;52.624;13.544;2023-04-15T06:13:25;68.08;43.95;77.76;;
18377;Laerm;9315;52.624;13.544;2023-04-15T06:15:52;65.24;42.50;77.79;;
18377;Laerm;9315;52.624;13.544;2023-04-15T06:18:20;67.93;43.77;78.53;;
18377;Laerm;9315;52.624;13.544;2023-04-15T06:20:48;68.90;42.46;79.13;;
18377;Laerm;9315;52.624;13.544;2023-04-15T06:23:15;65.24;42.16;77.14;;
18377;Laerm;9315;52.624;13.544;2023-04-15T06:25:42;68.69;44.51;79.61;;
18377;Laerm;9315;52.624;13.544;2023-04-15T06:28:09;66.81;44.27;80.09;;
18377;Laerm;9315;52.624;13.544;2023-04-15T06:30:36;68.48;44.87;79.06;;
18377;Laerm;9315;52.624;13.544;2023-04-15T06:33:04;66.62;44.94;78.13;;
18377;Laerm;9315;52.624;13.544;2023-04-15T06:35:32;66.62;43.29;78.13;;
18377;Laerm;9315;52.624;13.544;2023-04-15T06:37:59;68.47;42.77;81.33;;
18377;Laerm;9315;52.624;13.544;2023-04-15T06:40:26;67.43;44.00;82.09;;
18377;Laerm;9315;52.624;13.544;2023-04-15T06:42:54;69.48;43.40;79.93;;
18377;Laerm;9315;52.624;13.544;2023-04-15T06:45:21;70.18;49.20;80.42;;
18377;Laerm;9315;52.624;13.544;2023-04-15T06:47:49;68.17;44.03;78.36;;
18377;Laerm;9315;52.624;13.544;2023-04-15T06:50:16;66.36;43.12;75.75;;
18377;Laerm;9315;52.624;13.544;2023-04-15T06:52:43;68.47;46.46;79.43;;
18377;Laerm;9315;52.624;13.544;2023-04-15T06:55:10;70.19;46.81;78.80;;
18377;Laerm;9315;52.624;13.544;2023-04-15T06:57:38;68.63;44.54;79.37;;
18377;Laerm;9315;52.624;13.544;2023-04-15T07:00:09;71.10;48.30;81.71;;
18377;Laerm;9315;52.624;13.544;2023-04-15T07:02:38;66.97;46.14;79.99;;
18377;Laerm;9315;52.624;13.544;2023-04-15T07:05:06;66.85;42.84;77.25;;
18377;Laerm;9315;52.624;13.544;2023-04-15T07:07:33;69.53;43.72;78.67;;
18377;Laerm;9315;52.624;13.544;2023-04-15T07:10:00;71.08;49.77;79.19;;
18377;Laerm;9315;52.624;13.544;2023-04-15T07:12:29;68.91;45.83;80.28;;
18377;Laerm;9315;52.624;13.544;2023-04-15T07:14:56;70.07;43.39;82.71;;
18377;Laerm;9315;52.624;13.544;2023-04-15T07:17:24;70.53;48.26;80.22;;
18377;Laerm;9315;52.624;13.544;2023-04-15T07:19:51;68.81;44.82;78.95;;
18377;Laerm;9315;52.624;13.544;2023-04-15T07:22:18;68.16;41.37;79.65;;
18377;Laerm;9315;52.624;13.544;2023-04-15T07:24:46;71.30;47.61;78.87;;
18377;Laerm;9315;52.624;13.544;2023-04-15T07:27:13;71.98;46.41;82.52;;
18377;Laerm;9315;52.624;13.544;2023-04-15T07:29:40;70.70;43.79;82.54;;
18377;Laerm;9315;52.624;13.544;2023-04-15T07:32:08;72.34;46.28;84.04;;
18377;Laerm;9315;52.624;13.544;2023-04-15T07:34:38;70.72;44.34;79.74;;
18377;Laerm;9315;52.624;13.544;2023-04-15T07:37:05;69.87;45.85;81.53;;
18377;Laerm;9315;52.624;13.544;2023-04-15T07:39:32;73.22;46.48;84.67;;
18377;Laerm;9315;52.624;13.544;2023-04-15T07:41:59;72.95;47.16;83.91;;
18377;Laerm;9315;52.624;13.544;2023-04-15T07:44:27;69.07;45.30;77.61;;
18377;Laerm;9315;52.624;13.544;2023-04-15T07:46:56;71.77;47.21;80.82;;
18377;Laerm;9315;52.624;13.544;2023-04-15T07:49:23;71.55;44.81;78.08;;
18377;Laerm;9315;52.624;13.544;2023-04-15T07:51:54;72.88;52.27;80.08;;
18377;Laerm;9315;52.624;13.544;2023-04-15T07:54:26;70.21;43.64;79.13;;
18377;Laerm;9315;52.624;13.544;2023-04-15T07:56:53;72.89;50.57;80.96;;
18377;Laerm;9315;52.624;13.544;2023-04-15T07:59:20;71.52;45.45;80.42;;
18377;Laerm;9315;52.624;13.544;2023-04-15T08:01:50;70.74;46.12;79.59;;
18377;Laerm;9315;52.624;13.544;2023-04-15T08:04:19;68.45;43.12;79.13;;
18377;Laerm;9315;52.624;13.544;2023-04-15T08:06:46;70.69;46.21;79.15;;
18377;Laerm;9315;52.624;13.544;2023-04-15T08:09:16;72.44;45.33;80.11;;
18377;Laerm;9315;52.624;13.544;2023-04-15T08:11:43;71.85;47.98;78.78;;
18377;Laerm;9315;52.624;13.544;2023-04-15T08:14:12;70.47;44.57;78.40;;
18377;Laerm;9315;52.624;13.544;2023-04-15T08:16:39;70.82;44.56;81.10;;
18377;Laerm;9315;52.624;13.544;2023-04-15T08:19:11;73.45;48.71;90.59;;
18377;Laerm;9315;52.624;13.544;2023-04-15T08:21:38;71.90;49.35;81.04;;
18377;Laerm;9315;52.624;13.544;2023-04-15T08:24:06;70.08;47.47;79.63;;
18377;Laerm;9315;52.624;13.544;2023-04-15T08:26:34;69.99;46.76;79.59;;
18377;Laerm;9315;52.624;13.544;2023-04-15T08:29:01;72.11;51.11;79.47;;
18377;Laerm;9315;52.624;13.544;2023-04-15T08:31:29;69.91;48.91;79.08;;
18377;Laerm;9315;52.624;13.544;2023-04-15T08:33:57;70.51;50.76;77.38;;
18377;Laerm;9315;52.624;13.544;2023-04-15T08:36:25;70.79;54.28;79.32;;
18377;Laerm;9315;52.624;13.544;2023-04-15T08:39:05;69.61;45.54;78.04;;
18377;Laerm;9315;52.624;13.544;2023-04-15T08:42:02;72.11;49.75;81.92;;
18377;Laerm;9315;52.624;13.544;2023-04-15T08:44:33;70.49;50.85;78.74;;
18377;Laerm;9315;52.624;13.544;2023-04-15T08:47:02;69.91;43.78;77.39;;
18377;Laerm;9315;52.624;13.544;2023-04-15T08:49:32;72.24;46.43;81.09;;
18377;Laerm;9315;52.624;13.544;2023-04-15T08:52:02;70.98;47.11;78.20;;
18377;Laerm;9315;52.624;13.544;2023-04-15T08:54:30;71.12;50.01;84.62;;
18377;Laerm;9315;52.624;13.544;2023-04-15T08:56:59;71.62;48.28;78.51;;
18377;Laerm;9315;52.624;13.544;2023-04-15T08:59:29;71.56;48.12;82.66;;
18377;Laerm;9315;52.624;13.544;2023-04-15T09:01:57;71.34;45.53;78.94;;
18377;Laerm;9315;52.624;13.544;2023-04-15T09:04:25;70.69;44.92;81.01;;
18377;Laerm;9315;52.624;13.544;2023-04-15T09:06:52;70.00;46.01;77.47;;
18377;Laerm;9315;52.624;13.544;2023-04-15T09:09:19;68.94;45.63;78.11;;
18377;Laerm;9315;52.624;13.544;2023-04-15T09:11:46;70.54;45.61;78.55;;
18377;Laerm;9315;52.624;13.544;2023-04-15T09:14:15;70.64;46.50;80.89;;
18377;Laerm;9315;52.624;13.544;2023-04-15T09:17:09;69.77;49.60;81.16;;
18377;Laerm;9315;52.624;13.544;2023-04-15T09:19:38;70.44;49.60;76.76;;
18377;Laerm;9315;52.624;13.544;2023-04-15T09:22:05;68.70;44.68;77.36;;
18377;Laerm;9315;52.624;13.544;2023-04-15T09:24:39;69.35;49.91;79.38;;
18377;Laerm;9315;52.624;13.544;2023-04-15T09:27:10;69.64;44.96;77.60;;
18377;Laerm;9315;52.624;13.544;2023-04-15T09:29:38;67.00;49.84;76.46;;
18377;Laerm;9315;52.624;13.544;2023-04-15T09:32:13;68.97;51.97;78.73;;
18377;Laerm;9315;52.624;13.544;2023-04-15T09:34:41;67.62;52.70;76.84;;
18377;Laerm;9315;52.624;13.544;2023-04-15T09:37:08;70.59;49.44;85.25;;
18377;Laerm;9315;52.624;13.544;2023-04-15T09:39:49;69.59;48.07;77.61;;
18377;Laerm;9315;52.624;13.544;2023-04-15T09:42:17;70.22;45.64;81.08;;
18377;Laerm;9315;52.624;13.544;2023-04-15T09:44:54;69.05;46.10;80.01;;
18377;Laerm;9315;52.624;13.544;2023-04-15T09:47:35;69.58;50.12;76.88;;
18377;Laerm;9315;52.624;13.544;2023-04-15T09:50:02;70.03;48.97;78.16;;
18377;Laerm;9315;52.624;13.544;2023-04-15T09:52:30;69.37;48.97;81.44;;
18377;Laerm;9315;52.624;13.544;2023-04-15T09:54:59;70.85;49.68;84.83;;
18377;Laerm;9315;52.624;13.544;2023-04-15T09:57:35;70.56;46.37;79.72;;
18377;Laerm;9315;52.624;13.544;2023-04-15T10:00:08;81.52;46.37;105.09;;
18377;Laerm;9315;52.624;13.544;2023-04-15T10:02:40;68.68;46.13;77.42;;
18377;Laerm;9315;52.624;13.544;2023-04-15T10:05:14;70.33;49.08;78.67;;
18377;Laerm;9315;52.624;13.544;2023-04-15T10:07:44;71.06;50.63;79.04;;
18377;Laerm;9315;52.624;13.544;2023-04-15T10:10:12;69.76;48.31;76.84;;
18377;Laerm;9315;52.624;13.544;2023-04-15T10:12:41;69.14;45.18;77.93;;
18377;Laerm;9315;52.624;13.544;2023-04-15T10:15:18;71.23;46.50;82.65;;
18377;Laerm;9315;52.624;13.544;2023-04-15T10:17:47;72.28;51.35;79.35;;
18377;Laerm;9315;52.624;13.544;2023-04-15T10:20:17;70.62;46.48;78.61;;
18377;Laerm;9315;52.624;13.544;2023-04-15T10:22:46;72.09;44.99;80.60;;
18377;Laerm;9315;52.624;13.544;2023-04-15T10:25:16;72.23;52.42;81.85;;
18377;Laerm;9315;52.624;13.544;2023-04-15T10:27:44;72.48;46.50;81.74;;
18377;Laerm;9315;52.624;13.544;2023-04-15T10:30:14;72.62;48.54;80.60;;
18377;Laerm;9315;52.624;13.544;2023-04-15T10:32:45;71.76;45.13;79.61;;
18377;Laerm;9315;52.624;13.544;2023-04-15T10:35:13;72.30;47.97;84.47;;
18377;Laerm;9315;52.624;13.544;2023-04-15T10:37:41;73.44;50.56;80.56;;
18377;Laerm;9315;52.624;13.544;2023-04-15T10:42:56;72.45;47.63;81.44;;
18377;Laerm;9315;52.624;13.544;2023-04-15T10:45:31;74.28;48.78;82.23;;
18377;Laerm;9315;52.624;13.544;2023-04-15T10:48:03;73.95;51.82;82.70;;
18377;Laerm;9315;52.624;13.544;2023-04-15T10:50:32;85.01;54.38;105.65;;
18377;Laerm;9315;52.624;13.544;2023-04-15T10:53:03;72.89;51.29;82.18;;
18377;Laerm;9315;52.624;13.544;2023-04-15T10:55:34;73.18;46.59;80.42;;
18377;Laerm;9315;52.624;13.544;2023-04-15T10:58:02;73.31;45.07;82.33;;
18377;Laerm;9315;52.624;13.544;2023-04-15T11:00:31;73.32;47.79;82.65;;
18377;Laerm;9315;52.624;13.544;2023-04-15T11:03:08;74.09;52.57;83.13;;
18377;Laerm;9315;52.624;13.544;2023-04-15T11:05:50;75.11;48.58;82.48;;
18377;Laerm;9315;52.624;13.544;2023-04-15T11:08:18;72.21;47.42;81.45;;
18377;Laerm;9315;52.624;13.544;2023-04-15T11:13:20;74.04;45.11;82.57;;
18377;Laerm;9315;52.624;13.544;2023-04-15T11:15:56;75.02;50.50;82.81;;
18377;Laerm;9315;52.624;13.544;2023-04-15T11:18:28;71.93;45.28;82.20;;
18377;Laerm;9315;52.624;13.544;2023-04-15T11:21:05;74.44;45.82;84.64;;
18377;Laerm;9315;52.624;13.544;2023-04-15T11:23:41;75.14;48.02;82.99;;
18377;Laerm;9315;52.624;13.544;2023-04-15T11:26:17;73.81;51.36;82.23;;
18377;Laerm;9315;52.624;13.544;2023-04-15T11:28:45;75.63;49.87;84.07;;
18377;Laerm;9315;52.624;13.544;2023-04-15T11:31:17;73.33;50.78;82.99;;
18377;Laerm;9315;52.624;13.544;2023-04-15T11:33:59;75.58;47.82;84.04;;
18377;Laerm;9315;52.624;13.544;2023-04-15T11:36:30;73.60;46.96;83.51;;
18377;Laerm;9315;52.624;13.544;2023-04-15T11:38:59;75.07;54.54;84.84;;
18377;Laerm;9315;52.624;13.544;2023-04-15T11:41:27;73.40;51.76;82.53;;
18377;Laerm;9315;52.624;13.544;2023-04-15T11:43:55;75.42;55.65;82.83;;
18377;Laerm;9315;52.624;13.544;2023-04-15T11:46:31;75.94;50.98;84.52;;
18377;Laerm;9315;52.624;13.544;2023-04-15T11:48:58;75.62;51.28;84.21;;
18377;Laerm;9315;52.624;13.544;2023-04-15T11:51:26;76.18;53.97;84.08;;
18377;Laerm;9315;52.624;13.544;2023-04-15T11:53:58;77.13;56.28;84.26;;
18377;Laerm;9315;52.624;13.544;2023-04-15T11:56:30;76.32;54.74;84.47;;
18377;Laerm;9315;52.624;13.544;2023-04-15T11:58:58;77.42;50.56;85.18;;
18377;Laerm;9315;52.624;13.544;2023-04-15T12:01:37;77.01;52.44;85.49;;
18377;Laerm;9315;52.624;13.544;2023-04-15T12:04:16;77.88;55.06;86.46;;
18377;Laerm;9315;52.624;13.544;2023-04-15T12:06:48;76.71;48.67;86.94;;
18377;Laerm;9315;52.624;13.544;2023-04-15T12:09:18;75.74;51.22;85.14;;
18377;Laerm;9315;52.624;13.544;2023-04-15T12:11:51;77.34;53.38;84.74;;
18377;Laerm;9315;52.624;13.544;2023-04-15T12:14:26;75.68;45.31;85.70;;
18377;Laerm;9315;52.624;13.544;2023-04-15T12:17:05;75.99;47.94;83.96;;
18377;Laerm;9315;52.624;13.544;2023-04-15T12:19:41;78.71;61.25;86.99;;
18377;Laerm;9315;52.624;13.544;2023-04-15T12:22:11;76.09;47.30;83.71;;
18377;Laerm;9315;52.624;13.544;2023-04-15T12:24:40;76.97;59.44;83.76;;
18377;Laerm;9315;52.624;13.544;2023-04-15T12:27:15;77.10;55.99;85.76;;
18377;Laerm;9315;52.624;13.544;2023-04-15T12:29:42;76.74;53.10;84.53;;
18377;Laerm;9315;52.624;13.544;2023-04-15T12:32:16;75.56;53.55;85.16;;
18377;Laerm;9315;52.624;13.544;2023-04-15T12:34:52;75.65;45.30;85.64;;
18377;Laerm;9315;52.624;13.544;2023-04-15T12:37:24;74.86;48.10;84.69;;
18377;Laerm;9315;52.624;13.544;2023-04-15T12:39:52;75.28;48.34;84.47;;
18377;Laerm;9315;52.624;13.544;2023-04-15T12:42:20;75.83;53.58;86.16;;
18377;Laerm;9315;52.624;13.544;2023-04-15T12:44:48;74.96;50.04;83.87;;
18377;Laerm;9315;52.624;13.544;2023-04-15T12:47:15;74.59;50.31;83.67;;
18377;Laerm;9315;52.624;13.544;2023-04-15T12:49:42;76.16;51.87;83.38;;
18377;Laerm;9315;52.624;13.544;2023-04-15T12:52:10;75.70;54.36;84.06;;
18377;Laerm;9315;52.624;13.544;2023-04-15T12:54:38;74.26;48.95;84.77;;
18377;Laerm;9315;52.624;13.544;2023-04-15T12:57:05;73.57;47.22;81.67;;
18377;Laerm;9315;52.624;13.544;2023-04-15T12:59:34;75.01;46.93;83.73;;
18377;Laerm;9315;52.624;13.544;2023-04-15T13:02:03;74.97;47.50;82.50;;
18377;Laerm;9315;52.624;13.544;2023-04-15T13:04:30;72.22;43.57;84.67;;
18377;Laerm;9315;52.624;13.544;2023-04-15T13:06:58;73.84;49.54;82.11;;
18377;Laerm;9315;52.624;13.544;2023-04-15T13:09:25;72.49;42.90;80.29;;
18377;Laerm;9315;52.624;13.544;2023-04-15T13:11:53;74.19;47.63;81.83;;
18377;Laerm;9315;52.624;13.544;2023-04-15T13:14:20;72.50;46.81;81.15;;
18377;Laerm;9315;52.624;13.544;2023-04-15T13:16:47;74.60;46.66;82.68;;
18377;Laerm;9315;52.624;13.544;2023-04-15T13:19:14;72.80;47.82;80.57;;
18377;Laerm;9315;52.624;13.544;2023-04-15T13:21:42;73.70;49.63;83.32;;
18377;Laerm;9315;52.624;13.544;2023-04-15T13:24:09;72.64;44.52;80.81;;
18377;Laerm;9315;52.624;13.544;2023-04-15T13:26:36;72.49;41.76;80.98;;
18377;Laerm;9315;52.624;13.544;2023-04-15T13:29:03;72.53;50.05;82.28;;
18377;Laerm;9315;52.624;13.544;2023-04-15T13:31:31;74.34;49.87;80.88;;
18377;Laerm;9315;52.624;13.544;2023-04-15T13:33:58;72.37;47.07;81.32;;
18377;Laerm;9315;52.624;13.544;2023-04-15T13:36:25;73.76;45.23;81.47;;
18377;Laerm;9315;52.624;13.544;2023-04-15T13:38:53;73.57;48.00;82.25;;
18377;Laerm;9315;52.624;13.544;2023-04-15T13:41:20;73.35;57.78;81.89;;
18377;Laerm;9315;52.624;13.544;2023-04-15T13:43:48;73.72;53.69;82.48;;
18377;Laerm;9315;52.624;13.544;2023-04-15T13:50:42;73.44;43.78;81.00;;
18377;Laerm;9315;52.624;13.544;2023-04-15T13:53:12;71.50;43.44;83.37;;
18377;Laerm;9315;52.624;13.544;2023-04-15T13:55:41;73.08;50.90;80.95;;
18377;Laerm;9315;52.624;13.544;2023-04-15T13:58:10;73.57;49.86;81.35;;
18377;Laerm;9315;52.624;13.544;2023-04-15T14:00:37;73.40;52.82;82.20;;
18377;Laerm;9315;52.624;13.544;2023-04-15T14:03:04;72.22;44.08;81.77;;